sensor_id;sensor_type;location;lat;lon;timestamp;P1;P2;P0
40371;PMS5003;28564;53.346;-6.554;2023-04-03T00:00:33;9;8;
40371;PMS5003;28564;53.346;-6.554;2023-04-03T00:03:01;9;8;
40371;PMS5003;28564;53.346;-6.554;2023-04-03T00:05:28;11;11;
40371;PMS5003;28564;53.346;-6.554;2023-04-03T00:07:56;6;6;
40371;PMS5003;28564;53.346;-6.554;2023-04-03T00:10:23;11;7;
40371;PMS5003;28564;53.346;-6.554;2023-04-03T00:12:50;8;8;
40371;PMS5003;28564;53.346;-6.554;2023-04-03T00:15:17;5;5;
40371;PMS5003;28564;53.346;-6.554;2023-04-03T00:17:45;7;7;
40371;PMS5003;28564;53.346;-6.554;2023-04-03T00:20:12;8;8;
40371;PMS5003;28564;53.346;-6.554;2023-04-03T00:22:39;7;7;
40371;PMS5003;28564;53.346;-6.554;2023-04-03T00:25:07;8;8;
40371;PMS5003;28564;53.346;-6.554;2023-04-03T00:27:35;8;7;
40371;PMS5003;28564;53.346;-6.554;2023-04-03T00:30:03;7;5;
40371;PMS5003;28564;53.346;-6.554;2023-04-03T00:32:31;8;7;
40371;PMS5003;28564;53.346;-6.554;2023-04-03T00:34:59;8;7;
40371;PMS5003;28564;53.346;-6.554;2023-04-03T00:37:27;7;6;
40371;PMS5003;28564;53.346;-6.554;2023-04-03T00:39:54;8;6;
40371;PMS5003;28564;53.346;-6.554;2023-04-03T00:42:21;8;6;
40371;PMS5003;28564;53.346;-6.554;2023-04-03T00:45:54;8;8;
40371;PMS5003;28564;53.346;-6.554;2023-04-03T00:48:24;7;7;
40371;PMS5003;28564;53.346;-6.554;2023-04-03T00:50:55;9;7;
40371;PMS5003;28564;53.346;-6.554;2023-04-03T00:53:24;8;7;
40371;PMS5003;28564;53.346;-6.554;2023-04-03T00:55:56;5;5;
40371;PMS5003;28564;53.346;-6.554;2023-04-03T00:58:26;6;6;
40371;PMS5003;28564;53.346;-6.554;2023-04-03T01:00:59;5;5;
40371;PMS5003;28564;53.346;-6.554;2023-04-03T01:03:30;6;6;
40371;PMS5003;28564;53.346;-6.554;2023-04-03T01:05:57;10;7;
40371;PMS5003;28564;53.346;-6.554;2023-04-03T01:08:25;8;7;
40371;PMS5003;28564;53.346;-6.554;2023-04-03T01:10:52;7;6;
40371;PMS5003;28564;53.346;-6.554;2023-04-03T01:13:22;5;5;
40371;PMS5003;28564;53.346;-6.554;2023-04-03T01:15:51;6;5;
40371;PMS5003;28564;53.346;-6.554;2023-04-03T01:18:19;6;6;
40371;PMS5003;28564;53.346;-6.554;2023-04-03T01:21:01;6;6;
40371;PMS5003;28564;53.346;-6.554;2023-04-03T01:23:53;6;4;
40371;PMS5003;28564;53.346;-6.554;2023-04-03T01:26:27;5;5;
40371;PMS5003;28564;53.346;-6.554;2023-04-03T01:28:59;3;3;
40371;PMS5003;28564;53.346;-6.554;2023-04-03T01:31:28;6;6;
40371;PMS5003;28564;53.346;-6.554;2023-04-03T01:33:59;6;6;
40371;PMS5003;28564;53.346;-6.554;2023-04-03T01:36:27;8;6;
40371;PMS5003;28564;53.346;-6.554;2023-04-03T01:38:57;12;10;
40371;PMS5003;28564;53.346;-6.554;2023-04-03T01:41:26;8;7;
40371;PMS5003;28564;53.346;-6.554;2023-04-03T01:43:54;8;7;
40371;PMS5003;28564;53.346;-6.554;2023-04-03T01:46:21;8;8;
40371;PMS5003;28564;53.346;-6.554;2023-04-03T01:48:48;6;6;
40371;PMS5003;28564;53.346;-6.554;2023-04-03T01:51:16;8;6;
40371;PMS5003;28564;53.346;-6.554;2023-04-03T01:53:43;8;6;
40371;PMS5003;28564;53.346;-6.554;2023-04-03T01:56:10;7;6;
40371;PMS5003;28564;53.346;-6.554;2023-04-03T01:58:38;4;4;
40371;PMS5003;28564;53.346;-6.554;2023-04-03T02:01:05;6;6;
40371;PMS5003;28564;53.346;-6.554;2023-04-03T02:03:32;4;4;
40371;PMS5003;28564;53.346;-6.554;2023-04-03T02:05:59;6;6;
40371;PMS5003;28564;53.346;-6.554;2023-04-03T02:08:27;6;5;
40371;PMS5003;28564;53.346;-6.554;2023-04-03T02:10:54;4;4;
40371;PMS5003;28564;53.346;-6.554;2023-04-03T02:13:21;3;3;
40371;PMS5003;28564;53.346;-6.554;2023-04-03T02:15:49;5;5;
40371;PMS5003;28564;53.346;-6.554;2023-04-03T02:18:16;4;4;
40371;PMS5003;28564;53.346;-6.554;2023-04-03T02:20:45;4;3;
40371;PMS5003;28564;53.346;-6.554;2023-04-03T02:23:13;2;2;
40371;PMS5003;28564;53.346;-6.554;2023-04-03T02:25:41;3;3;
40371;PMS5003;28564;53.346;-6.554;2023-04-03T02:28:08;2;2;
40371;PMS5003;28564;53.346;-6.554;2023-04-03T02:30:35;2;2;
40371;PMS5003;28564;53.346;-6.554;2023-04-03T02:33:03;3;3;
40371;PMS5003;28564;53.346;-6.554;2023-04-03T02:35:30;5;4;
40371;PMS5003;28564;53.346;-6.554;2023-04-03T02:37:57;4;3;
40371;PMS5003;28564;53.346;-6.554;2023-04-03T02:40:25;3;3;
40371;PMS5003;28564;53.346;-6.554;2023-04-03T02:42:52;2;2;
40371;PMS5003;28564;53.346;-6.554;2023-04-03T02:45:19;2;2;
40371;PMS5003;28564;53.346;-6.554;2023-04-03T02:47:47;3;3;
40371;PMS5003;28564;53.346;-6.554;2023-04-03T02:50:14;2;2;
40371;PMS5003;28564;53.346;-6.554;2023-04-03T02:52:41;2;2;
40371;PMS5003;28564;53.346;-6.554;2023-04-03T02:55:09;2;2;
40371;PMS5003;28564;53.346;-6.554;2023-04-03T02:57:40;2;2;
40371;PMS5003;28564;53.346;-6.554;2023-04-03T03:00:08;2;2;
40371;PMS5003;28564;53.346;-6.554;2023-04-03T03:02:36;1;1;
40371;PMS5003;28564;53.346;-6.554;2023-04-03T03:05:03;3;1;
40371;PMS5003;28564;53.346;-6.554;2023-04-03T03:07:30;2;2;
40371;PMS5003;28564;53.346;-6.554;2023-04-03T03:09:58;2;1;
40371;PMS5003;28564;53.346;-6.554;2023-04-03T03:12:25;3;2;
40371;PMS5003;28564;53.346;-6.554;2023-04-03T03:14:52;2;2;
40371;PMS5003;28564;53.346;-6.554;2023-04-03T03:17:20;1;1;
40371;PMS5003;28564;53.346;-6.554;2023-04-03T03:19:47;0;0;
40371;PMS5003;28564;53.346;-6.554;2023-04-03T03:22:15;3;1;
40371;PMS5003;28564;53.346;-6.554;2023-04-03T03:24:43;1;1;
40371;PMS5003;28564;53.346;-6.554;2023-04-03T03:27:10;1;1;
40371;PMS5003;28564;53.346;-6.554;2023-04-03T03:29:37;3;2;
40371;PMS5003;28564;53.346;-6.554;2023-04-03T03:32:05;2;2;
40371;PMS5003;28564;53.346;-6.554;2023-04-03T03:34:32;1;1;
40371;PMS5003;28564;53.346;-6.554;2023-04-03T03:36:59;2;1;
40371;PMS5003;28564;53.346;-6.554;2023-04-03T03:39:27;1;1;
40371;PMS5003;28564;53.346;-6.554;2023-04-03T03:41:54;2;2;
40371;PMS5003;28564;53.346;-6.554;2023-04-03T03:44:21;2;2;
40371;PMS5003;28564;53.346;-6.554;2023-04-03T03:46:48;3;3;
40371;PMS5003;28564;53.346;-6.554;2023-04-03T03:49:16;2;2;
40371;PMS5003;28564;53.346;-6.554;2023-04-03T03:51:43;2;2;
40371;PMS5003;28564;53.346;-6.554;2023-04-03T03:54:11;2;2;
40371;PMS5003;28564;53.346;-6.554;2023-04-03T03:56:39;3;3;
40371;PMS5003;28564;53.346;-6.554;2023-04-03T03:59:06;3;3;
40371;PMS5003;28564;53.346;-6.554;2023-04-03T04:01:33;3;2;
40371;PMS5003;28564;53.346;-6.554;2023-04-03T04:04:01;2;2;
40371;PMS5003;28564;53.346;-6.554;2023-04-03T04:06:28;4;3;
40371;PMS5003;28564;53.346;-6.554;2023-04-03T04:08:55;3;3;
40371;PMS5003;28564;53.346;-6.554;2023-04-03T04:11:23;2;2;
40371;PMS5003;28564;53.346;-6.554;2023-04-03T04:13:50;3;3;
40371;PMS5003;28564;53.346;-6.554;2023-04-03T04:16:17;3;2;
40371;PMS5003;28564;53.346;-6.554;2023-04-03T04:18:45;1;1;
40371;PMS5003;28564;53.346;-6.554;2023-04-03T04:21:12;2;2;
40371;PMS5003;28564;53.346;-6.554;2023-04-03T04:23:39;3;3;
40371;PMS5003;28564;53.346;-6.554;2023-04-03T04:26:07;2;2;
40371;PMS5003;28564;53.346;-6.554;2023-04-03T04:28:34;3;3;
40371;PMS5003;28564;53.346;-6.554;2023-04-03T04:31:01;3;3;
40371;PMS5003;28564;53.346;-6.554;2023-04-03T04:33:29;4;3;
40371;PMS5003;28564;53.346;-6.554;2023-04-03T04:35:56;6;5;
40371;PMS5003;28564;53.346;-6.554;2023-04-03T04:38:24;2;2;
40371;PMS5003;28564;53.346;-6.554;2023-04-03T04:40:52;4;3;
40371;PMS5003;28564;53.346;-6.554;2023-04-03T04:43:19;4;4;
40371;PMS5003;28564;53.346;-6.554;2023-04-03T04:45:47;3;3;
40371;PMS5003;28564;53.346;-6.554;2023-04-03T04:48:14;4;3;
40371;PMS5003;28564;53.346;-6.554;2023-04-03T04:50:41;3;2;
40371;PMS5003;28564;53.346;-6.554;2023-04-03T04:53:09;4;4;
40371;PMS5003;28564;53.346;-6.554;2023-04-03T04:55:36;4;4;
40371;PMS5003;28564;53.346;-6.554;2023-04-03T04:58:03;3;3;
40371;PMS5003;28564;53.346;-6.554;2023-04-03T05:00:30;3;3;
40371;PMS5003;28564;53.346;-6.554;2023-04-03T05:02:58;3;3;
40371;PMS5003;28564;53.346;-6.554;2023-04-03T05:05:25;3;2;
40371;PMS5003;28564;53.346;-6.554;2023-04-03T05:07:52;3;3;
40371;PMS5003;28564;53.346;-6.554;2023-04-03T05:10:20;6;5;
40371;PMS5003;28564;53.346;-6.554;2023-04-03T05:12:47;8;7;
40371;PMS5003;28564;53.346;-6.554;2023-04-03T05:15:14;7;5;
40371;PMS5003;28564;53.346;-6.554;2023-04-03T05:17:42;6;6;
40371;PMS5003;28564;53.346;-6.554;2023-04-03T05:20:09;5;5;
40371;PMS5003;28564;53.346;-6.554;2023-04-03T05:22:37;5;5;
40371;PMS5003;28564;53.346;-6.554;2023-04-03T05:25:05;4;4;
40371;PMS5003;28564;53.346;-6.554;2023-04-03T05:27:33;6;6;
40371;PMS5003;28564;53.346;-6.554;2023-04-03T05:30:01;5;5;
40371;PMS5003;28564;53.346;-6.554;2023-04-03T05:32:28;7;7;
40371;PMS5003;28564;53.346;-6.554;2023-04-03T05:34:55;6;6;
40371;PMS5003;28564;53.346;-6.554;2023-04-03T05:37:23;9;9;
40371;PMS5003;28564;53.346;-6.554;2023-04-03T05:39:50;8;7;
40371;PMS5003;28564;53.346;-6.554;2023-04-03T05:42:18;7;7;
40371;PMS5003;28564;53.346;-6.554;2023-04-03T05:44:45;9;7;
40371;PMS5003;28564;53.346;-6.554;2023-04-03T05:47:13;4;4;
40371;PMS5003;28564;53.346;-6.554;2023-04-03T05:49:40;6;4;
40371;PMS5003;28564;53.346;-6.554;2023-04-03T05:52:10;7;7;
40371;PMS5003;28564;53.346;-6.554;2023-04-03T05:54:47;6;6;
40371;PMS5003;28564;53.346;-6.554;2023-04-03T05:57:14;8;5;
40371;PMS5003;28564;53.346;-6.554;2023-04-03T05:59:42;6;6;
40371;PMS5003;28564;53.346;-6.554;2023-04-03T06:02:10;7;7;
40371;PMS5003;28564;53.346;-6.554;2023-04-03T06:04:38;7;5;
40371;PMS5003;28564;53.346;-6.554;2023-04-03T06:07:06;8;8;
40371;PMS5003;28564;53.346;-6.554;2023-04-03T06:09:36;6;6;
40371;PMS5003;28564;53.346;-6.554;2023-04-03T06:12:04;6;6;
40371;PMS5003;28564;53.346;-6.554;2023-04-03T06:14:32;6;5;
40371;PMS5003;28564;53.346;-6.554;2023-04-03T06:16:59;6;6;
40371;PMS5003;28564;53.346;-6.554;2023-04-03T06:19:26;8;6;
40371;PMS5003;28564;53.346;-6.554;2023-04-03T06:21:54;8;5;
40371;PMS5003;28564;53.346;-6.554;2023-04-03T06:24:21;7;7;
40371;PMS5003;28564;53.346;-6.554;2023-04-03T06:26:49;13;12;
40371;PMS5003;28564;53.346;-6.554;2023-04-03T06:29:16;8;8;
40371;PMS5003;28564;53.346;-6.554;2023-04-03T06:31:44;9;6;
40371;PMS5003;28564;53.346;-6.554;2023-04-03T06:34:12;10;7;
40371;PMS5003;28564;53.346;-6.554;2023-04-03T06:36:40;10;7;
40371;PMS5003;28564;53.346;-6.554;2023-04-03T06:39:08;6;6;
40371;PMS5003;28564;53.346;-6.554;2023-04-03T06:41:39;6;5;
40371;PMS5003;28564;53.346;-6.554;2023-04-03T06:44:06;5;5;
40371;PMS5003;28564;53.346;-6.554;2023-04-03T06:46:33;6;5;
40371;PMS5003;28564;53.346;-6.554;2023-04-03T06:49:01;9;6;
40371;PMS5003;28564;53.346;-6.554;2023-04-03T06:51:28;5;5;
40371;PMS5003;28564;53.346;-6.554;2023-04-03T06:53:57;8;6;
40371;PMS5003;28564;53.346;-6.554;2023-04-03T06:56:26;12;11;
40371;PMS5003;28564;53.346;-6.554;2023-04-03T06:58:55;13;10;
40371;PMS5003;28564;53.346;-6.554;2023-04-03T07:01:23;10;10;
40371;PMS5003;28564;53.346;-6.554;2023-04-03T07:03:52;14;12;
40371;PMS5003;28564;53.346;-6.554;2023-04-03T07:06:20;11;11;
40371;PMS5003;28564;53.346;-6.554;2023-04-03T07:08:47;12;11;
40371;PMS5003;28564;53.346;-6.554;2023-04-03T07:11:14;15;12;
40371;PMS5003;28564;53.346;-6.554;2023-04-03T07:13:42;11;11;
40371;PMS5003;28564;53.346;-6.554;2023-04-03T07:16:09;15;13;
40371;PMS5003;28564;53.346;-6.554;2023-04-03T07:18:37;10;9;
40371;PMS5003;28564;53.346;-6.554;2023-04-03T07:21:04;10;10;
40371;PMS5003;28564;53.346;-6.554;2023-04-03T07:23:31;14;11;
40371;PMS5003;28564;53.346;-6.554;2023-04-03T07:25:59;10;10;
40371;PMS5003;28564;53.346;-6.554;2023-04-03T07:28:26;12;11;
40371;PMS5003;28564;53.346;-6.554;2023-04-03T07:30:54;13;13;
40371;PMS5003;28564;53.346;-6.554;2023-04-03T07:33:26;10;9;
40371;PMS5003;28564;53.346;-6.554;2023-04-03T07:35:54;9;8;
40371;PMS5003;28564;53.346;-6.554;2023-04-03T07:38:21;11;9;
40371;PMS5003;28564;53.346;-6.554;2023-04-03T07:40:49;9;9;
40371;PMS5003;28564;53.346;-6.554;2023-04-03T07:43:17;8;6;
40371;PMS5003;28564;53.346;-6.554;2023-04-03T07:45:45;9;8;
40371;PMS5003;28564;53.346;-6.554;2023-04-03T07:48:13;11;10;
40371;PMS5003;28564;53.346;-6.554;2023-04-03T07:50:40;10;9;
40371;PMS5003;28564;53.346;-6.554;2023-04-03T07:53:08;10;8;
40371;PMS5003;28564;53.346;-6.554;2023-04-03T07:55:35;9;9;
40371;PMS5003;28564;53.346;-6.554;2023-04-03T07:58:03;8;7;
40371;PMS5003;28564;53.346;-6.554;2023-04-03T08:00:30;8;6;
40371;PMS5003;28564;53.346;-6.554;2023-04-03T08:02:57;8;8;
40371;PMS5003;28564;53.346;-6.554;2023-04-03T08:05:24;8;7;
40371;PMS5003;28564;53.346;-6.554;2023-04-03T08:07:51;9;8;
40371;PMS5003;28564;53.346;-6.554;2023-04-03T08:10:19;7;6;
40371;PMS5003;28564;53.346;-6.554;2023-04-03T08:12:46;9;8;
40371;PMS5003;28564;53.346;-6.554;2023-04-03T08:15:15;10;10;
40371;PMS5003;28564;53.346;-6.554;2023-04-03T08:17:43;9;7;
40371;PMS5003;28564;53.346;-6.554;2023-04-03T08:20:10;10;9;
40371;PMS5003;28564;53.346;-6.554;2023-04-03T08:22:37;10;10;
40371;PMS5003;28564;53.346;-6.554;2023-04-03T08:25:05;9;8;
40371;PMS5003;28564;53.346;-6.554;2023-04-03T08:27:33;10;10;
40371;PMS5003;28564;53.346;-6.554;2023-04-03T08:30:00;10;8;
40371;PMS5003;28564;53.346;-6.554;2023-04-03T08:32:27;9;9;
40371;PMS5003;28564;53.346;-6.554;2023-04-03T08:34:54;10;8;
40371;PMS5003;28564;53.346;-6.554;2023-04-03T08:37:22;12;10;
40371;PMS5003;28564;53.346;-6.554;2023-04-03T08:39:49;22;19;
40371;PMS5003;28564;53.346;-6.554;2023-04-03T08:42:19;31;31;
40371;PMS5003;28564;53.346;-6.554;2023-04-03T08:44:57;25;24;
40371;PMS5003;28564;53.346;-6.554;2023-04-03T08:47:28;22;20;
40371;PMS5003;28564;53.346;-6.554;2023-04-03T08:50:05;28;25;
40371;PMS5003;28564;53.346;-6.554;2023-04-03T08:52:38;24;24;
40371;PMS5003;28564;53.346;-6.554;2023-04-03T08:55:12;20;16;
40371;PMS5003;28564;53.346;-6.554;2023-04-03T08:57:47;18;15;
40371;PMS5003;28564;53.346;-6.554;2023-04-03T09:03:49;10;9;
40371;PMS5003;28564;53.346;-6.554;2023-04-03T09:06:18;9;9;
40371;PMS5003;28564;53.346;-6.554;2023-04-03T09:08:50;8;8;
40371;PMS5003;28564;53.346;-6.554;2023-04-03T09:11:26;11;8;
40371;PMS5003;28564;53.346;-6.554;2023-04-03T09:14:07;9;9;
40371;PMS5003;28564;53.346;-6.554;2023-04-03T09:16:45;8;8;
40371;PMS5003;28564;53.346;-6.554;2023-04-03T09:19:18;8;8;
40371;PMS5003;28564;53.346;-6.554;2023-04-03T09:21:51;9;8;
40371;PMS5003;28564;53.346;-6.554;2023-04-03T09:24:18;6;6;
40371;PMS5003;28564;53.346;-6.554;2023-04-03T09:26:48;8;6;
40371;PMS5003;28564;53.346;-6.554;2023-04-03T09:29:20;4;4;
40371;PMS5003;28564;53.346;-6.554;2023-04-03T09:31:50;8;5;
40371;PMS5003;28564;53.346;-6.554;2023-04-03T09:34:23;6;5;
40371;PMS5003;28564;53.346;-6.554;2023-04-03T09:36:55;5;5;
40371;PMS5003;28564;53.346;-6.554;2023-04-03T09:39:25;7;6;
40371;PMS5003;28564;53.346;-6.554;2023-04-03T09:41:57;6;5;
40371;PMS5003;28564;53.346;-6.554;2023-04-03T09:44:31;5;5;
40371;PMS5003;28564;53.346;-6.554;2023-04-03T09:47:00;6;4;
40371;PMS5003;28564;53.346;-6.554;2023-04-03T09:49:45;8;6;
40371;PMS5003;28564;53.346;-6.554;2023-04-03T09:52:23;5;5;
40371;PMS5003;28564;53.346;-6.554;2023-04-03T09:54:51;5;4;
40371;PMS5003;28564;53.346;-6.554;2023-04-03T09:57:19;6;5;
40371;PMS5003;28564;53.346;-6.554;2023-04-03T09:59:47;6;6;
40371;PMS5003;28564;53.346;-6.554;2023-04-03T10:02:30;7;4;
40371;PMS5003;28564;53.346;-6.554;2023-04-03T10:05:03;4;4;
40371;PMS5003;28564;53.346;-6.554;2023-04-03T10:07:52;6;6;
40371;PMS5003;28564;53.346;-6.554;2023-04-03T10:10:33;6;5;
40371;PMS5003;28564;53.346;-6.554;2023-04-03T10:13:05;6;4;
40371;PMS5003;28564;53.346;-6.554;2023-04-03T10:15:36;7;5;
40371;PMS5003;28564;53.346;-6.554;2023-04-03T10:18:06;5;3;
40371;PMS5003;28564;53.346;-6.554;2023-04-03T10:21:00;7;4;
40371;PMS5003;28564;53.346;-6.554;2023-04-03T10:23:33;4;4;
40371;PMS5003;28564;53.346;-6.554;2023-04-03T10:26:09;4;4;
40371;PMS5003;28564;53.346;-6.554;2023-04-03T10:28:50;6;4;
40371;PMS5003;28564;53.346;-6.554;2023-04-03T10:31:27;6;4;
40371;PMS5003;28564;53.346;-6.554;2023-04-03T10:34:03;4;4;
40371;PMS5003;28564;53.346;-6.554;2023-04-03T10:36:36;4;4;
40371;PMS5003;28564;53.346;-6.554;2023-04-03T10:39:12;6;3;
40371;PMS5003;28564;53.346;-6.554;2023-04-03T10:41:51;5;5;
40371;PMS5003;28564;53.346;-6.554;2023-04-03T10:44:28;4;4;
40371;PMS5003;28564;53.346;-6.554;2023-04-03T10:47:05;3;3;
40371;PMS5003;28564;53.346;-6.554;2023-04-03T10:49:41;7;4;
40371;PMS5003;28564;53.346;-6.554;2023-04-03T10:52:19;7;5;
40371;PMS5003;28564;53.346;-6.554;2023-04-03T10:54:56;5;5;
40371;PMS5003;28564;53.346;-6.554;2023-04-03T10:57:34;4;4;
40371;PMS5003;28564;53.346;-6.554;2023-04-03T11:00:03;4;4;
40371;PMS5003;28564;53.346;-6.554;2023-04-03T11:02:34;4;4;
40371;PMS5003;28564;53.346;-6.554;2023-04-03T11:05:18;3;3;
40371;PMS5003;28564;53.346;-6.554;2023-04-03T11:07:55;5;4;
40371;PMS5003;28564;53.346;-6.554;2023-04-03T11:10:31;3;3;
40371;PMS5003;28564;53.346;-6.554;2023-04-03T11:13:08;4;4;
40371;PMS5003;28564;53.346;-6.554;2023-04-03T11:15:40;4;4;
40371;PMS5003;28564;53.346;-6.554;2023-04-03T11:18:09;7;5;
40371;PMS5003;28564;53.346;-6.554;2023-04-03T11:20:41;3;3;
40371;PMS5003;28564;53.346;-6.554;2023-04-03T11:23:12;7;4;
40371;PMS5003;28564;53.346;-6.554;2023-04-03T11:25:48;4;4;
40371;PMS5003;28564;53.346;-6.554;2023-04-03T11:28:18;4;3;
40371;PMS5003;28564;53.346;-6.554;2023-04-03T11:30:46;5;4;
40371;PMS5003;28564;53.346;-6.554;2023-04-03T11:33:37;3;3;
40371;PMS5003;28564;53.346;-6.554;2023-04-03T11:36:18;3;3;
40371;PMS5003;28564;53.346;-6.554;2023-04-03T11:38:50;7;7;
40371;PMS5003;28564;53.346;-6.554;2023-04-03T11:41:25;5;4;
40371;PMS5003;28564;53.346;-6.554;2023-04-03T11:43:56;5;5;
40371;PMS5003;28564;53.346;-6.554;2023-04-03T11:46:48;5;4;
40371;PMS5003;28564;53.346;-6.554;2023-04-03T11:51:38;7;4;
40371;PMS5003;28564;53.346;-6.554;2023-04-03T11:54:35;6;5;
40371;PMS5003;28564;53.346;-6.554;2023-04-03T11:58:02;5;5;
40371;PMS5003;28564;53.346;-6.554;2023-04-03T12:00:54;6;5;
40371;PMS5003;28564;53.346;-6.554;2023-04-03T12:04:04;7;6;
40371;PMS5003;28564;53.346;-6.554;2023-04-03T12:06:42;4;4;
40371;PMS5003;28564;53.346;-6.554;2023-04-03T12:10:20;3;3;
40371;PMS5003;28564;53.346;-6.554;2023-04-03T12:12:56;6;6;
40371;PMS5003;28564;53.346;-6.554;2023-04-03T12:15:38;5;5;
40371;PMS5003;28564;53.346;-6.554;2023-04-03T12:21:00;7;5;
40371;PMS5003;28564;53.346;-6.554;2023-04-03T12:23:29;6;5;
40371;PMS5003;28564;53.346;-6.554;2023-04-03T12:26:03;7;6;
40371;PMS5003;28564;53.346;-6.554;2023-04-03T12:28:36;6;6;
40371;PMS5003;28564;53.346;-6.554;2023-04-03T12:31:05;6;6;
40371;PMS5003;28564;53.346;-6.554;2023-04-03T12:33:38;28;28;
40371;PMS5003;28564;53.346;-6.554;2023-04-03T12:36:18;16;15;
40371;PMS5003;28564;53.346;-6.554;2023-04-03T12:39:02;19;16;
40371;PMS5003;28564;53.346;-6.554;2023-04-03T12:41:38;42;42;
40371;PMS5003;28564;53.346;-6.554;2023-04-03T12:44:17;4;4;
40371;PMS5003;28564;53.346;-6.554;2023-04-03T12:46:59;4;2;
40371;PMS5003;28564;53.346;-6.554;2023-04-03T12:49:33;5;3;
40371;PMS5003;28564;53.346;-6.554;2023-04-03T12:52:04;5;3;
40371;PMS5003;28564;53.346;-6.554;2023-04-03T12:54:43;3;3;
40371;PMS5003;28564;53.346;-6.554;2023-04-03T12:57:20;4;4;
40371;PMS5003;28564;53.346;-6.554;2023-04-03T12:59:50;3;3;
40371;PMS5003;28564;53.346;-6.554;2023-04-03T13:02:20;3;3;
40371;PMS5003;28564;53.346;-6.554;2023-04-03T13:04:51;5;3;
40371;PMS5003;28564;53.346;-6.554;2023-04-03T13:07:21;4;4;
40371;PMS5003;28564;53.346;-6.554;2023-04-03T13:09:59;4;4;
40371;PMS5003;28564;53.346;-6.554;2023-04-03T13:12:30;2;2;
40371;PMS5003;28564;53.346;-6.554;2023-04-03T13:14:59;4;4;
40371;PMS5003;28564;53.346;-6.554;2023-04-03T13:17:27;3;3;
40371;PMS5003;28564;53.346;-6.554;2023-04-03T13:19:54;4;4;
40371;PMS5003;28564;53.346;-6.554;2023-04-03T13:22:36;4;4;
40371;PMS5003;28564;53.346;-6.554;2023-04-03T13:25:07;5;4;
40371;PMS5003;28564;53.346;-6.554;2023-04-03T13:27:38;6;3;
40371;PMS5003;28564;53.346;-6.554;2023-04-03T13:30:17;4;4;
40371;PMS5003;28564;53.346;-6.554;2023-04-03T13:32:49;6;5;
40371;PMS5003;28564;53.346;-6.554;2023-04-03T13:35:25;8;5;
40371;PMS5003;28564;53.346;-6.554;2023-04-03T13:37:55;6;4;
40371;PMS5003;28564;53.346;-6.554;2023-04-03T13:40:25;6;4;
40371;PMS5003;28564;53.346;-6.554;2023-04-03T13:43:01;3;3;
40371;PMS5003;28564;53.346;-6.554;2023-04-03T13:45:32;30;30;
40371;PMS5003;28564;53.346;-6.554;2023-04-03T13:48:14;16;16;
40371;PMS5003;28564;53.346;-6.554;2023-04-03T13:50:52;9;8;
40371;PMS5003;28564;53.346;-6.554;2023-04-03T13:53:23;4;4;
40371;PMS5003;28564;53.346;-6.554;2023-04-03T13:55:59;4;4;
40371;PMS5003;28564;53.346;-6.554;2023-04-03T13:58:33;4;4;
40371;PMS5003;28564;53.346;-6.554;2023-04-03T14:01:07;6;5;
40371;PMS5003;28564;53.346;-6.554;2023-04-03T14:03:39;2;2;
40371;PMS5003;28564;53.346;-6.554;2023-04-03T14:06:10;4;4;
40371;PMS5003;28564;53.346;-6.554;2023-04-03T14:08:39;9;6;
40371;PMS5003;28564;53.346;-6.554;2023-04-03T14:11:09;6;3;
40371;PMS5003;28564;53.346;-6.554;2023-04-03T14:13:40;5;5;
40371;PMS5003;28564;53.346;-6.554;2023-04-03T14:16:11;5;3;
40371;PMS5003;28564;53.346;-6.554;2023-04-03T14:18:40;8;5;
40371;PMS5003;28564;53.346;-6.554;2023-04-03T14:21:08;6;5;
40371;PMS5003;28564;53.346;-6.554;2023-04-03T14:23:38;5;5;
40371;PMS5003;28564;53.346;-6.554;2023-04-03T14:26:08;5;5;
40371;PMS5003;28564;53.346;-6.554;2023-04-03T14:28:38;2;2;
40371;PMS5003;28564;53.346;-6.554;2023-04-03T14:31:06;3;3;
40371;PMS5003;28564;53.346;-6.554;2023-04-03T14:33:33;4;4;
40371;PMS5003;28564;53.346;-6.554;2023-04-03T14:36:00;5;5;
40371;PMS5003;28564;53.346;-6.554;2023-04-03T14:38:28;6;3;
40371;PMS5003;28564;53.346;-6.554;2023-04-03T14:40:56;3;3;
40371;PMS5003;28564;53.346;-6.554;2023-04-03T14:43:25;3;3;
40371;PMS5003;28564;53.346;-6.554;2023-04-03T14:45:53;4;4;
40371;PMS5003;28564;53.346;-6.554;2023-04-03T14:48:21;6;5;
40371;PMS5003;28564;53.346;-6.554;2023-04-03T14:50:51;2;2;
40371;PMS5003;28564;53.346;-6.554;2023-04-03T14:53:19;3;3;
40371;PMS5003;28564;53.346;-6.554;2023-04-03T14:55:47;2;2;
40371;PMS5003;28564;53.346;-6.554;2023-04-03T14:58:16;6;4;
40371;PMS5003;28564;53.346;-6.554;2023-04-03T15:00:44;0;0;
40371;PMS5003;28564;53.346;-6.554;2023-04-03T15:03:13;4;3;
40371;PMS5003;28564;53.346;-6.554;2023-04-03T15:05:43;3;2;
40371;PMS5003;28564;53.346;-6.554;2023-04-03T15:08:16;3;2;
40371;PMS5003;28564;53.346;-6.554;2023-04-03T15:10:45;1;1;
40371;PMS5003;28564;53.346;-6.554;2023-04-03T15:13:13;2;2;
40371;PMS5003;28564;53.346;-6.554;2023-04-03T15:15:41;5;3;
40371;PMS5003;28564;53.346;-6.554;2023-04-03T15:18:10;3;3;
40371;PMS5003;28564;53.346;-6.554;2023-04-03T15:20:44;3;3;
40371;PMS5003;28564;53.346;-6.554;2023-04-03T15:23:12;3;3;
40371;PMS5003;28564;53.346;-6.554;2023-04-03T15:25:41;3;3;
40371;PMS5003;28564;53.346;-6.554;2023-04-03T15:28:09;3;3;
40371;PMS5003;28564;53.346;-6.554;2023-04-03T15:30:44;5;3;
40371;PMS5003;28564;53.346;-6.554;2023-04-03T15:33:11;7;3;
40371;PMS5003;28564;53.346;-6.554;2023-04-03T15:35:38;4;4;
40371;PMS5003;28564;53.346;-6.554;2023-04-03T15:38:05;3;3;
40371;PMS5003;28564;53.346;-6.554;2023-04-03T15:40:32;4;4;
40371;PMS5003;28564;53.346;-6.554;2023-04-03T15:42:59;2;2;
40371;PMS5003;28564;53.346;-6.554;2023-04-03T15:45:27;3;3;
40371;PMS5003;28564;53.346;-6.554;2023-04-03T15:47:56;2;2;
40371;PMS5003;28564;53.346;-6.554;2023-04-03T15:50:24;4;2;
40371;PMS5003;28564;53.346;-6.554;2023-04-03T15:52:51;4;4;
40371;PMS5003;28564;53.346;-6.554;2023-04-03T15:55:19;4;4;
40371;PMS5003;28564;53.346;-6.554;2023-04-03T15:57:47;3;3;
40371;PMS5003;28564;53.346;-6.554;2023-04-03T16:00:14;5;3;
40371;PMS5003;28564;53.346;-6.554;2023-04-03T16:02:42;3;3;
40371;PMS5003;28564;53.346;-6.554;2023-04-03T16:05:11;3;3;
40371;PMS5003;28564;53.346;-6.554;2023-04-03T16:07:39;3;3;
40371;PMS5003;28564;53.346;-6.554;2023-04-03T16:10:07;3;3;
40371;PMS5003;28564;53.346;-6.554;2023-04-03T16:12:36;7;5;
40371;PMS5003;28564;53.346;-6.554;2023-04-03T16:15:04;7;6;
40371;PMS5003;28564;53.346;-6.554;2023-04-03T16:17:33;7;6;
40371;PMS5003;28564;53.346;-6.554;2023-04-03T16:20:02;3;3;
40371;PMS5003;28564;53.346;-6.554;2023-04-03T16:22:31;5;5;
40371;PMS5003;28564;53.346;-6.554;2023-04-03T16:24:59;5;4;
40371;PMS5003;28564;53.346;-6.554;2023-04-03T16:27:27;5;2;
40371;PMS5003;28564;53.346;-6.554;2023-04-03T16:29:54;2;2;
40371;PMS5003;28564;53.346;-6.554;2023-04-03T16:32:22;4;2;
40371;PMS5003;28564;53.346;-6.554;2023-04-03T16:34:51;1;1;
40371;PMS5003;28564;53.346;-6.554;2023-04-03T16:37:18;3;3;
40371;PMS5003;28564;53.346;-6.554;2023-04-03T16:39:46;3;3;
40371;PMS5003;28564;53.346;-6.554;2023-04-03T16:42:13;1;1;
40371;PMS5003;28564;53.346;-6.554;2023-04-03T16:44:41;3;3;
40371;PMS5003;28564;53.346;-6.554;2023-04-03T16:47:09;3;3;
40371;PMS5003;28564;53.346;-6.554;2023-04-03T16:49:37;3;3;
40371;PMS5003;28564;53.346;-6.554;2023-04-03T16:52:04;4;2;
40371;PMS5003;28564;53.346;-6.554;2023-04-03T16:54:31;3;3;
40371;PMS5003;28564;53.346;-6.554;2023-04-03T16:56:59;4;3;
40371;PMS5003;28564;53.346;-6.554;2023-04-03T16:59:26;2;2;
40371;PMS5003;28564;53.346;-6.554;2023-04-03T17:01:54;3;3;